sensor_id;sensor_type;location;lat;lon;timestamp;temperature;humidity
70807;DHT22;58882;52.170;5.386;2023-12-07T00:02:26;12.20;56.00
70807;DHT22;58882;52.170;5.386;2023-12-07T00:04:53;12.20;56.20
70807;DHT22;58882;52.170;5.386;2023-12-07T00:07:20;12.20;56.10
70807;DHT22;58882;52.170;5.386;2023-12-07T00:09:47;12.20;56.20
70807;DHT22;58882;52.170;5.386;2023-12-07T00:12:14;12.20;56.00
70807;DHT22;58882;52.170;5.386;2023-12-07T00:14:41;12.10;55.90
70807;DHT22;58882;52.170;5.386;2023-12-07T00:17:08;12.20;56.20
70807;DHT22;58882;52.170;5.386;2023-12-07T00:19:35;12.10;56.10
70807;DHT22;58882;52.170;5.386;2023-12-07T00:22:02;12.10;56.20
70807;DHT22;58882;52.170;5.386;2023-12-07T00:24:29;12.10;56.80
70807;DHT22;58882;52.170;5.386;2023-12-07T00:26:57;12.10;57.00
70807;DHT22;58882;52.170;5.386;2023-12-07T00:29:24;12.10;56.70
70807;DHT22;58882;52.170;5.386;2023-12-07T00:31:51;12.10;57.00
70807;DHT22;58882;52.170;5.386;2023-12-07T00:34:18;12.10;57.30
70807;DHT22;58882;52.170;5.386;2023-12-07T00:36:45;12.10;57.40
70807;DHT22;58882;52.170;5.386;2023-12-07T00:39:12;12.10;57.50
70807;DHT22;58882;52.170;5.386;2023-12-07T00:41:39;12.20;57.60
70807;DHT22;58882;52.170;5.386;2023-12-07T00:44:06;12.10;57.50
70807;DHT22;58882;52.170;5.386;2023-12-07T00:46:32;12.10;57.30
70807;DHT22;58882;52.170;5.386;2023-12-07T00:48:59;12.20;58.30
70807;DHT22;58882;52.170;5.386;2023-12-07T00:51:26;12.10;57.30
70807;DHT22;58882;52.170;5.386;2023-12-07T00:53:53;12.20;57.30
70807;DHT22;58882;52.170;5.386;2023-12-07T00:56:20;12.10;57.30
70807;DHT22;58882;52.170;5.386;2023-12-07T00:58:47;12.10;57.20
70807;DHT22;58882;52.170;5.386;2023-12-07T01:01:14;12.10;57.30
70807;DHT22;58882;52.170;5.386;2023-12-07T01:03:41;12.10;57.30
70807;DHT22;58882;52.170;5.386;2023-12-07T01:06:08;12.10;57.20
70807;DHT22;58882;52.170;5.386;2023-12-07T01:08:36;12.10;57.20
70807;DHT22;58882;52.170;5.386;2023-12-07T01:11:04;12.10;57.20
70807;DHT22;58882;52.170;5.386;2023-12-07T01:13:31;12.10;56.90
70807;DHT22;58882;52.170;5.386;2023-12-07T01:15:58;12.10;57.00
70807;DHT22;58882;52.170;5.386;2023-12-07T01:18:25;12.10;57.00
70807;DHT22;58882;52.170;5.386;2023-12-07T01:20:52;12.00;57.30
70807;DHT22;58882;52.170;5.386;2023-12-07T01:23:19;12.10;56.90
70807;DHT22;58882;52.170;5.386;2023-12-07T01:25:46;12.00;57.00
70807;DHT22;58882;52.170;5.386;2023-12-07T01:28:13;12.00;57.00
70807;DHT22;58882;52.170;5.386;2023-12-07T01:30:39;12.00;57.00
70807;DHT22;58882;52.170;5.386;2023-12-07T01:33:06;12.00;57.10
70807;DHT22;58882;52.170;5.386;2023-12-07T01:35:33;12.00;57.20
70807;DHT22;58882;52.170;5.386;2023-12-07T01:38:00;11.90;57.10
70807;DHT22;58882;52.170;5.386;2023-12-07T01:40:27;11.90;57.10
70807;DHT22;58882;52.170;5.386;2023-12-07T01:42:54;11.90;57.10
70807;DHT22;58882;52.170;5.386;2023-12-07T01:45:21;11.90;57.20
70807;DHT22;58882;52.170;5.386;2023-12-07T01:47:49;11.90;57.20
70807;DHT22;58882;52.170;5.386;2023-12-07T01:50:17;11.90;57.30
70807;DHT22;58882;52.170;5.386;2023-12-07T01:52:54;11.90;57.30
70807;DHT22;58882;52.170;5.386;2023-12-07T01:55:22;11.90;57.30
70807;DHT22;58882;52.170;5.386;2023-12-07T01:57:49;11.90;57.30
70807;DHT22;58882;52.170;5.386;2023-12-07T02:00:16;11.90;57.40
70807;DHT22;58882;52.170;5.386;2023-12-07T02:02:44;11.90;57.50
70807;DHT22;58882;52.170;5.386;2023-12-07T02:05:13;11.90;57.60
70807;DHT22;58882;52.170;5.386;2023-12-07T02:07:41;11.80;57.30
70807;DHT22;58882;52.170;5.386;2023-12-07T02:10:10;11.80;57.40
70807;DHT22;58882;52.170;5.386;2023-12-07T02:12:37;11.80;57.40
70807;DHT22;58882;52.170;5.386;2023-12-07T02:15:04;11.80;57.50
70807;DHT22;58882;52.170;5.386;2023-12-07T02:23:03;11.70;57.20
70807;DHT22;58882;52.170;5.386;2023-12-07T02:25:44;11.70;57.50
70807;DHT22;58882;52.170;5.386;2023-12-07T02:28:11;11.70;57.60
70807;DHT22;58882;52.170;5.386;2023-12-07T02:30:39;11.70;57.40
70807;DHT22;58882;52.170;5.386;2023-12-07T02:33:05;11.70;57.50
70807;DHT22;58882;52.170;5.386;2023-12-07T02:35:33;11.70;57.60
70807;DHT22;58882;52.170;5.386;2023-12-07T02:38:00;11.70;57.70
70807;DHT22;58882;52.170;5.386;2023-12-07T02:40:29;11.70;57.60
70807;DHT22;58882;52.170;5.386;2023-12-07T02:42:57;11.70;57.60
70807;DHT22;58882;52.170;5.386;2023-12-07T02:45:24;11.70;57.70
70807;DHT22;58882;52.170;5.386;2023-12-07T02:47:53;11.70;57.70
70807;DHT22;58882;52.170;5.386;2023-12-07T02:50:20;11.70;57.80
70807;DHT22;58882;52.170;5.386;2023-12-07T02:52:47;11.70;57.70
70807;DHT22;58882;52.170;5.386;2023-12-07T02:55:13;11.70;57.80
70807;DHT22;58882;52.170;5.386;2023-12-07T02:57:40;11.60;57.40
70807;DHT22;58882;52.170;5.386;2023-12-07T03:00:07;11.60;57.10
70807;DHT22;58882;52.170;5.386;2023-12-07T03:02:39;11.70;57.40
70807;DHT22;58882;52.170;5.386;2023-12-07T03:05:06;11.60;57.70
70807;DHT22;58882;52.170;5.386;2023-12-07T03:07:34;11.60;57.60
70807;DHT22;58882;52.170;5.386;2023-12-07T03:10:02;11.60;57.30
70807;DHT22;58882;52.170;5.386;2023-12-07T03:12:30;11.60;57.40
70807;DHT22;58882;52.170;5.386;2023-12-07T03:14:56;11.60;57.20
70807;DHT22;58882;52.170;5.386;2023-12-07T03:17:24;11.60;57.20
70807;DHT22;58882;52.170;5.386;2023-12-07T03:19:51;11.60;57.20
70807;DHT22;58882;52.170;5.386;2023-12-07T03:22:18;11.60;57.60
70807;DHT22;58882;52.170;5.386;2023-12-07T03:24:50;11.60;57.80
70807;DHT22;58882;52.170;5.386;2023-12-07T03:27:17;11.60;59.00
70807;DHT22;58882;52.170;5.386;2023-12-07T03:29:43;11.60;58.00
70807;DHT22;58882;52.170;5.386;2023-12-07T03:32:10;11.60;58.00
70807;DHT22;58882;52.170;5.386;2023-12-07T03:34:37;11.60;58.10
70807;DHT22;58882;52.170;5.386;2023-12-07T03:37:04;11.60;58.20
70807;DHT22;58882;52.170;5.386;2023-12-07T03:39:32;11.60;58.20
70807;DHT22;58882;52.170;5.386;2023-12-07T03:42:00;11.60;58.10
70807;DHT22;58882;52.170;5.386;2023-12-07T03:44:26;11.60;58.10
70807;DHT22;58882;52.170;5.386;2023-12-07T03:46:54;11.60;57.90
70807;DHT22;58882;52.170;5.386;2023-12-07T03:49:21;11.60;57.60
70807;DHT22;58882;52.170;5.386;2023-12-07T03:51:48;11.60;57.60
70807;DHT22;58882;52.170;5.386;2023-12-07T03:54:15;11.60;57.30
70807;DHT22;58882;52.170;5.386;2023-12-07T03:56:42;11.60;57.40
70807;DHT22;58882;52.170;5.386;2023-12-07T03:59:09;11.50;58.00
70807;DHT22;58882;52.170;5.386;2023-12-07T04:01:36;11.50;59.30
70807;DHT22;58882;52.170;5.386;2023-12-07T04:04:03;11.50;58.30
70807;DHT22;58882;52.170;5.386;2023-12-07T04:06:31;11.60;58.30
70807;DHT22;58882;52.170;5.386;2023-12-07T04:08:58;11.60;58.10
70807;DHT22;58882;52.170;5.386;2023-12-07T04:11:25;11.60;59.00
70807;DHT22;58882;52.170;5.386;2023-12-07T04:13:52;11.60;58.00
70807;DHT22;58882;52.170;5.386;2023-12-07T04:16:18;11.60;57.60
70807;DHT22;58882;52.170;5.386;2023-12-07T04:18:45;11.50;57.10
70807;DHT22;58882;52.170;5.386;2023-12-07T04:21:12;11.50;57.00
70807;DHT22;58882;52.170;5.386;2023-12-07T04:23:39;11.40;57.20
70807;DHT22;58882;52.170;5.386;2023-12-07T04:26:06;11.40;57.60
70807;DHT22;58882;52.170;5.386;2023-12-07T04:28:33;11.40;58.30
70807;DHT22;58882;52.170;5.386;2023-12-07T04:30:59;11.40;58.00
70807;DHT22;58882;52.170;5.386;2023-12-07T04:33:26;11.40;58.00
70807;DHT22;58882;52.170;5.386;2023-12-07T04:35:53;11.40;58.00
70807;DHT22;58882;52.170;5.386;2023-12-07T04:38:20;11.40;58.00
70807;DHT22;58882;52.170;5.386;2023-12-07T04:40:47;11.40;57.80
70807;DHT22;58882;52.170;5.386;2023-12-07T04:43:14;11.40;58.40
70807;DHT22;58882;52.170;5.386;2023-12-07T04:45:41;11.40;58.80
70807;DHT22;58882;52.170;5.386;2023-12-07T04:48:08;11.40;58.40
70807;DHT22;58882;52.170;5.386;2023-12-07T04:50:35;11.40;58.00
70807;DHT22;58882;52.170;5.386;2023-12-07T04:53:02;11.40;58.00
70807;DHT22;58882;52.170;5.386;2023-12-07T04:55:28;11.40;58.10
70807;DHT22;58882;52.170;5.386;2023-12-07T04:57:55;11.40;58.10
70807;DHT22;58882;52.170;5.386;2023-12-07T05:00:22;11.40;57.80
70807;DHT22;58882;52.170;5.386;2023-12-07T05:02:49;11.40;57.60
70807;DHT22;58882;52.170;5.386;2023-12-07T05:05:16;11.30;57.80
70807;DHT22;58882;52.170;5.386;2023-12-07T05:07:43;11.30;58.50
70807;DHT22;58882;52.170;5.386;2023-12-07T05:10:10;11.40;58.40
70807;DHT22;58882;52.170;5.386;2023-12-07T05:12:37;11.40;58.30
70807;DHT22;58882;52.170;5.386;2023-12-07T05:15:04;11.40;58.40
70807;DHT22;58882;52.170;5.386;2023-12-07T05:17:33;11.40;57.80
70807;DHT22;58882;52.170;5.386;2023-12-07T05:20:00;11.30;57.80
70807;DHT22;58882;52.170;5.386;2023-12-07T05:22:27;11.40;58.10
70807;DHT22;58882;52.170;5.386;2023-12-07T05:24:55;11.40;58.10
70807;DHT22;58882;52.170;5.386;2023-12-07T05:27:22;11.30;58.00
70807;DHT22;58882;52.170;5.386;2023-12-07T05:29:49;11.30;57.90
70807;DHT22;58882;52.170;5.386;2023-12-07T05:32:16;11.30;57.50
70807;DHT22;58882;52.170;5.386;2023-12-07T05:34:42;11.30;57.50
70807;DHT22;58882;52.170;5.386;2023-12-07T05:37:10;11.30;57.40
70807;DHT22;58882;52.170;5.386;2023-12-07T05:39:37;11.30;57.80
70807;DHT22;58882;52.170;5.386;2023-12-07T05:42:05;11.30;57.80
70807;DHT22;58882;52.170;5.386;2023-12-07T05:44:32;11.30;57.70
70807;DHT22;58882;52.170;5.386;2023-12-07T05:46:58;11.30;57.50
70807;DHT22;58882;52.170;5.386;2023-12-07T05:49:25;11.30;57.40
70807;DHT22;58882;52.170;5.386;2023-12-07T05:51:52;11.20;57.10
70807;DHT22;58882;52.170;5.386;2023-12-07T05:54:20;11.30;57.70
70807;DHT22;58882;52.170;5.386;2023-12-07T05:56:49;11.20;57.30
70807;DHT22;58882;52.170;5.386;2023-12-07T05:59:17;11.20;57.00
70807;DHT22;58882;52.170;5.386;2023-12-07T06:01:44;11.20;57.10
70807;DHT22;58882;52.170;5.386;2023-12-07T06:04:11;11.20;57.00
70807;DHT22;58882;52.170;5.386;2023-12-07T06:06:39;11.30;57.10
70807;DHT22;58882;52.170;5.386;2023-12-07T06:09:06;11.30;57.10
70807;DHT22;58882;52.170;5.386;2023-12-07T06:11:34;11.30;57.40
70807;DHT22;58882;52.170;5.386;2023-12-07T06:14:01;11.30;57.20
70807;DHT22;58882;52.170;5.386;2023-12-07T06:16:28;11.30;57.20
70807;DHT22;58882;52.170;5.386;2023-12-07T06:18:55;11.20;56.90
70807;DHT22;58882;52.170;5.386;2023-12-07T06:21:22;11.30;57.10
70807;DHT22;58882;52.170;5.386;2023-12-07T06:23:49;11.30;56.70
70807;DHT22;58882;52.170;5.386;2023-12-07T06:26:16;11.30;56.70
70807;DHT22;58882;52.170;5.386;2023-12-07T06:28:43;11.30;56.50
70807;DHT22;58882;52.170;5.386;2023-12-07T06:31:11;11.30;56.60
70807;DHT22;58882;52.170;5.386;2023-12-07T06:33:40;11.30;56.50
70807;DHT22;58882;52.170;5.386;2023-12-07T06:36:07;11.30;56.00
70807;DHT22;58882;52.170;5.386;2023-12-07T06:38:34;11.30;56.10
70807;DHT22;58882;52.170;5.386;2023-12-07T06:41:00;11.30;55.70
70807;DHT22;58882;52.170;5.386;2023-12-07T06:43:27;11.30;55.80
70807;DHT22;58882;52.170;5.386;2023-12-07T06:45:54;11.30;55.60
70807;DHT22;58882;52.170;5.386;2023-12-07T06:48:21;11.30;55.70
70807;DHT22;58882;52.170;5.386;2023-12-07T06:50:48;11.30;56.00
70807;DHT22;58882;52.170;5.386;2023-12-07T06:53:15;11.30;55.80
70807;DHT22;58882;52.170;5.386;2023-12-07T06:55:42;11.30;55.40
70807;DHT22;58882;52.170;5.386;2023-12-07T06:58:11;11.30;55.30
70807;DHT22;58882;52.170;5.386;2023-12-07T07:00:38;11.30;55.80
70807;DHT22;58882;52.170;5.386;2023-12-07T07:03:05;11.30;55.20
70807;DHT22;58882;52.170;5.386;2023-12-07T07:05:35;11.30;54.60
70807;DHT22;58882;52.170;5.386;2023-12-07T07:08:02;11.30;54.60
70807;DHT22;58882;52.170;5.386;2023-12-07T07:10:28;11.20;54.70
70807;DHT22;58882;52.170;5.386;2023-12-07T07:13:02;11.20;54.50
70807;DHT22;58882;52.170;5.386;2023-12-07T07:15:33;11.20;54.60
70807;DHT22;58882;52.170;5.386;2023-12-07T07:18:01;11.20;54.40
70807;DHT22;58882;52.170;5.386;2023-12-07T07:20:28;11.20;54.20
70807;DHT22;58882;52.170;5.386;2023-12-07T07:22:55;11.20;54.30
70807;DHT22;58882;52.170;5.386;2023-12-07T07:25:23;11.10;54.10
70807;DHT22;58882;52.170;5.386;2023-12-07T07:27:49;11.10;54.10
70807;DHT22;58882;52.170;5.386;2023-12-07T07:30:16;11.10;54.10
70807;DHT22;58882;52.170;5.386;2023-12-07T07:32:43;11.10;54.20
70807;DHT22;58882;52.170;5.386;2023-12-07T07:35:10;11.10;54.30
70807;DHT22;58882;52.170;5.386;2023-12-07T07:37:39;11.00;54.20
70807;DHT22;58882;52.170;5.386;2023-12-07T07:40:06;11.00;54.20
70807;DHT22;58882;52.170;5.386;2023-12-07T07:42:35;11.00;54.30
70807;DHT22;58882;52.170;5.386;2023-12-07T07:45:02;11.00;54.40
70807;DHT22;58882;52.170;5.386;2023-12-07T07:47:29;11.00;54.50
70807;DHT22;58882;52.170;5.386;2023-12-07T07:49:56;11.00;54.30
70807;DHT22;58882;52.170;5.386;2023-12-07T07:52:25;11.00;55.00
70807;DHT22;58882;52.170;5.386;2023-12-07T07:54:52;11.00;54.80
70807;DHT22;58882;52.170;5.386;2023-12-07T07:57:18;11.00;54.60
70807;DHT22;58882;52.170;5.386;2023-12-07T07:59:45;11.00;54.60
70807;DHT22;58882;52.170;5.386;2023-12-07T08:02:12;11.00;54.20
70807;DHT22;58882;52.170;5.386;2023-12-07T08:04:39;11.00;54.40
70807;DHT22;58882;52.170;5.386;2023-12-07T08:07:06;11.00;54.60
70807;DHT22;58882;52.170;5.386;2023-12-07T08:09:34;11.00;54.50
70807;DHT22;58882;52.170;5.386;2023-12-07T08:12:01;11.00;54.60
70807;DHT22;58882;52.170;5.386;2023-12-07T08:14:28;11.00;54.40
70807;DHT22;58882;52.170;5.386;2023-12-07T08:16:55;11.00;54.10
70807;DHT22;58882;52.170;5.386;2023-12-07T08:19:22;11.10;53.70
70807;DHT22;58882;52.170;5.386;2023-12-07T08:21:50;11.10;53.70
70807;DHT22;58882;52.170;5.386;2023-12-07T08:24:17;11.10;53.50
70807;DHT22;58882;52.170;5.386;2023-12-07T08:26:44;11.10;53.20
70807;DHT22;58882;52.170;5.386;2023-12-07T08:29:11;11.10;53.00
70807;DHT22;58882;52.170;5.386;2023-12-07T08:31:38;11.10;53.00
70807;DHT22;58882;52.170;5.386;2023-12-07T08:34:05;11.10;53.00
70807;DHT22;58882;52.170;5.386;2023-12-07T08:36:32;11.10;53.00
70807;DHT22;58882;52.170;5.386;2023-12-07T08:38:59;11.10;53.20
70807;DHT22;58882;52.170;5.386;2023-12-07T08:41:26;11.10;53.40
70807;DHT22;58882;52.170;5.386;2023-12-07T08:43:53;11.10;53.00
70807;DHT22;58882;52.170;5.386;2023-12-07T08:46:20;11.10;53.00
70807;DHT22;58882;52.170;5.386;2023-12-07T08:48:47;11.10;54.20
70807;DHT22;58882;52.170;5.386;2023-12-07T08:51:13;11.10;53.30
70807;DHT22;58882;52.170;5.386;2023-12-07T08:53:41;11.10;52.70
70807;DHT22;58882;52.170;5.386;2023-12-07T08:56:08;11.10;53.20
70807;DHT22;58882;52.170;5.386;2023-12-07T08:58:34;11.10;53.60
70807;DHT22;58882;52.170;5.386;2023-12-07T09:01:01;11.20;53.80
70807;DHT22;58882;52.170;5.386;2023-12-07T09:03:28;11.20;54.00
70807;DHT22;58882;52.170;5.386;2023-12-07T09:06:00;11.20;53.90
70807;DHT22;58882;52.170;5.386;2023-12-07T09:08:27;11.20;53.40
70807;DHT22;58882;52.170;5.386;2023-12-07T09:10:54;11.20;53.60
70807;DHT22;58882;52.170;5.386;2023-12-07T09:13:21;11.20;53.10
70807;DHT22;58882;52.170;5.386;2023-12-07T09:15:48;11.20;53.80
70807;DHT22;58882;52.170;5.386;2023-12-07T09:18:15;11.20;53.10
70807;DHT22;58882;52.170;5.386;2023-12-07T09:20:42;11.20;52.50
70807;DHT22;58882;52.170;5.386;2023-12-07T09:23:13;11.20;52.60
70807;DHT22;58882;52.170;5.386;2023-12-07T09:25:42;11.20;52.60
70807;DHT22;58882;52.170;5.386;2023-12-07T09:28:10;11.20;52.90
70807;DHT22;58882;52.170;5.386;2023-12-07T09:30:37;11.20;54.00
70807;DHT22;58882;52.170;5.386;2023-12-07T09:33:04;11.10;52.30
70807;DHT22;58882;52.170;5.386;2023-12-07T09:35:31;11.20;53.10
70807;DHT22;58882;52.170;5.386;2023-12-07T09:37:58;11.10;53.00
70807;DHT22;58882;52.170;5.386;2023-12-07T09:40:25;11.20;52.80
70807;DHT22;58882;52.170;5.386;2023-12-07T09:42:52;11.20;52.90
70807;DHT22;58882;52.170;5.386;2023-12-07T09:45:20;11.10;52.60
70807;DHT22;58882;52.170;5.386;2023-12-07T09:47:49;11.10;52.00
70807;DHT22;58882;52.170;5.386;2023-12-07T09:50:21;11.10;52.50
70807;DHT22;58882;52.170;5.386;2023-12-07T09:52:49;11.10;53.20
70807;DHT22;58882;52.170;5.386;2023-12-07T09:55:30;11.10;53.40
70807;DHT22;58882;52.170;5.386;2023-12-07T09:57:58;11.10;53.00
70807;DHT22;58882;52.170;5.386;2023-12-07T10:00:25;11.10;53.00
70807;DHT22;58882;52.170;5.386;2023-12-07T10:02:52;11.10;52.70
70807;DHT22;58882;52.170;5.386;2023-12-07T10:05:21;11.10;52.60
70807;DHT22;58882;52.170;5.386;2023-12-07T10:07:49;11.10;52.50
70807;DHT22;58882;52.170;5.386;2023-12-07T10:10:18;11.10;52.30
70807;DHT22;58882;52.170;5.386;2023-12-07T10:15:20;11.10;52.30
70807;DHT22;58882;52.170;5.386;2023-12-07T10:20:26;11.10;52.20
70807;DHT22;58882;52.170;5.386;2023-12-07T10:23:06;11.10;52.70
70807;DHT22;58882;52.170;5.386;2023-12-07T10:25:39;11.10;52.40
70807;DHT22;58882;52.170;5.386;2023-12-07T10:28:07;11.10;51.80
70807;DHT22;58882;52.170;5.386;2023-12-07T10:30:35;11.00;50.90
70807;DHT22;58882;52.170;5.386;2023-12-07T10:33:05;11.00;51.10
70807;DHT22;58882;52.170;5.386;2023-12-07T10:35:41;10.90;52.70
70807;DHT22;58882;52.170;5.386;2023-12-07T10:38:09;10.90;52.20
70807;DHT22;58882;52.170;5.386;2023-12-07T10:40:36;10.90;52.50
70807;DHT22;58882;52.170;5.386;2023-12-07T10:43:07;10.90;52.50
70807;DHT22;58882;52.170;5.386;2023-12-07T10:45:36;10.90;52.50
70807;DHT22;58882;52.170;5.386;2023-12-07T10:48:07;10.90;52.10
70807;DHT22;58882;52.170;5.386;2023-12-07T10:50:45;10.90;52.10
70807;DHT22;58882;52.170;5.386;2023-12-07T10:53:43;10.80;51.60
70807;DHT22;58882;52.170;5.386;2023-12-07T10:56:14;10.80;52.50
70807;DHT22;58882;52.170;5.386;2023-12-07T10:58:43;10.80;52.90
70807;DHT22;58882;52.170;5.386;2023-12-07T11:01:12;10.80;52.20
70807;DHT22;58882;52.170;5.386;2023-12-07T11:03:41;10.80;52.60
70807;DHT22;58882;52.170;5.386;2023-12-07T11:06:10;10.80;52.40
70807;DHT22;58882;52.170;5.386;2023-12-07T11:08:44;10.80;51.90
70807;DHT22;58882;52.170;5.386;2023-12-07T11:11:30;10.80;51.90
70807;DHT22;58882;52.170;5.386;2023-12-07T11:14:02;10.70;51.80
70807;DHT22;58882;52.170;5.386;2023-12-07T11:19:00;10.70;52.80
70807;DHT22;58882;52.170;5.386;2023-12-07T11:21:27;10.70;52.80
70807;DHT22;58882;52.170;5.386;2023-12-07T11:23:54;10.70;52.50
70807;DHT22;58882;52.170;5.386;2023-12-07T11:26:25;10.70;52.30
70807;DHT22;58882;52.170;5.386;2023-12-07T11:28:52;10.70;52.20
70807;DHT22;58882;52.170;5.386;2023-12-07T11:31:19;10.70;51.90
70807;DHT22;58882;52.170;5.386;2023-12-07T11:33:47;10.60;52.40
70807;DHT22;58882;52.170;5.386;2023-12-07T11:36:14;10.60;52.50
70807;DHT22;58882;52.170;5.386;2023-12-07T11:41:51;10.60;52.00
70807;DHT22;58882;52.170;5.386;2023-12-07T11:44:20;10.60;52.30
70807;DHT22;58882;52.170;5.386;2023-12-07T11:46:50;10.60;53.20
70807;DHT22;58882;52.170;5.386;2023-12-07T11:49:17;10.60;53.20
70807;DHT22;58882;52.170;5.386;2023-12-07T11:51:59;10.60;52.70
70807;DHT22;58882;52.170;5.386;2023-12-07T11:54:26;10.70;53.30
70807;DHT22;58882;52.170;5.386;2023-12-07T11:56:55;10.70;52.70
70807;DHT22;58882;52.170;5.386;2023-12-07T11:59:22;10.70;52.50
70807;DHT22;58882;52.170;5.386;2023-12-07T12:02:00;10.70;53.00
70807;DHT22;58882;52.170;5.386;2023-12-07T12:04:29;10.70;53.10
70807;DHT22;58882;52.170;5.386;2023-12-07T12:06:56;10.70;53.20
70807;DHT22;58882;52.170;5.386;2023-12-07T12:09:26;10.80;52.90
70807;DHT22;58882;52.170;5.386;2023-12-07T12:11:59;10.80;53.00
70807;DHT22;58882;52.170;5.386;2023-12-07T12:14:29;10.80;52.90
70807;DHT22;58882;52.170;5.386;2023-12-07T12:16:56;10.80;52.90
70807;DHT22;58882;52.170;5.386;2023-12-07T12:19:23;10.80;53.00
70807;DHT22;58882;52.170;5.386;2023-12-07T12:22:01;10.90;53.00
70807;DHT22;58882;52.170;5.386;2023-12-07T12:24:36;10.80;52.60
70807;DHT22;58882;52.170;5.386;2023-12-07T12:27:04;10.80;52.90
70807;DHT22;58882;52.170;5.386;2023-12-07T12:29:32;10.90;53.30
70807;DHT22;58882;52.170;5.386;2023-12-07T12:32:02;10.90;53.70
70807;DHT22;58882;52.170;5.386;2023-12-07T12:34:30;11.00;53.40
70807;DHT22;58882;52.170;5.386;2023-12-07T12:36:59;11.00;53.70
70807;DHT22;58882;52.170;5.386;2023-12-07T12:39:29;11.00;52.80
70807;DHT22;58882;52.170;5.386;2023-12-07T12:42:00;11.00;53.00
70807;DHT22;58882;52.170;5.386;2023-12-07T12:44:28;11.10;52.80
70807;DHT22;58882;52.170;5.386;2023-12-07T12:47:07;11.10;51.80
70807;DHT22;58882;52.170;5.386;2023-12-07T12:49:40;11.00;52.20
70807;DHT22;58882;52.170;5.386;2023-12-07T12:52:11;11.00;52.40
70807;DHT22;58882;52.170;5.386;2023-12-07T12:54:39;11.00;52.60
70807;DHT22;58882;52.170;5.386;2023-12-07T12:57:09;11.00;53.00
70807;DHT22;58882;52.170;5.386;2023-12-07T12:59:37;11.00;53.00
70807;DHT22;58882;52.170;5.386;2023-12-07T13:02:03;11.00;52.20
70807;DHT22;58882;52.170;5.386;2023-12-07T13:04:31;11.00;52.90
70807;DHT22;58882;52.170;5.386;2023-12-07T13:07:08;11.00;52.30
70807;DHT22;58882;52.170;5.386;2023-12-07T13:09:35;11.00;52.80
70807;DHT22;58882;52.170;5.386;2023-12-07T13:12:01;11.00;53.00
70807;DHT22;58882;52.170;5.386;2023-12-07T13:14:32;11.20;53.20
70807;DHT22;58882;52.170;5.386;2023-12-07T13:17:06;11.40;53.20
70807;DHT22;58882;52.170;5.386;2023-12-07T13:19:34;11.50;53.10
70807;DHT22;58882;52.170;5.386;2023-12-07T13:22:03;11.70;52.80
70807;DHT22;58882;52.170;5.386;2023-12-07T13:24:30;11.90;52.50
70807;DHT22;58882;52.170;5.386;2023-12-07T13:26:57;12.10;52.30
70807;DHT22;58882;52.170;5.386;2023-12-07T13:29:27;12.20;52.00
70807;DHT22;58882;52.170;5.386;2023-12-07T13:32:03;12.30;51.80
70807;DHT22;58882;52.170;5.386;2023-12-07T13:34:30;12.50;51.60
70807;DHT22;58882;52.170;5.386;2023-12-07T13:36:57;12.60;51.40
70807;DHT22;58882;52.170;5.386;2023-12-07T13:39:24;12.70;51.20
70807;DHT22;58882;52.170;5.386;2023-12-07T13:41:57;12.80;51.00
70807;DHT22;58882;52.170;5.386;2023-12-07T13:44:25;12.90;50.80
70807;DHT22;58882;52.170;5.386;2023-12-07T13:46:55;12.90;50.70
70807;DHT22;58882;52.170;5.386;2023-12-07T13:49:24;13.00;50.50
70807;DHT22;58882;52.170;5.386;2023-12-07T13:52:01;13.10;50.30
70807;DHT22;58882;52.170;5.386;2023-12-07T13:54:36;13.10;50.10
70807;DHT22;58882;52.170;5.386;2023-12-07T13:57:06;13.20;49.90
70807;DHT22;58882;52.170;5.386;2023-12-07T13:59:35;13.30;49.90
70807;DHT22;58882;52.170;5.386;2023-12-07T14:02:03;13.30;49.80
70807;DHT22;58882;52.170;5.386;2023-12-07T14:04:30;13.40;49.60
70807;DHT22;58882;52.170;5.386;2023-12-07T14:07:08;13.50;49.60
70807;DHT22;58882;52.170;5.386;2023-12-07T14:09:36;13.50;49.40
70807;DHT22;58882;52.170;5.386;2023-12-07T14:12:18;13.50;49.20
70807;DHT22;58882;52.170;5.386;2023-12-07T14:14:46;13.60;49.20
70807;DHT22;58882;52.170;5.386;2023-12-07T14:17:14;13.60;49.10
70807;DHT22;58882;52.170;5.386;2023-12-07T14:19:42;13.70;49.00
70807;DHT22;58882;52.170;5.386;2023-12-07T14:22:09;13.70;48.80
70807;DHT22;58882;52.170;5.386;2023-12-07T14:24:36;13.70;48.70
70807;DHT22;58882;52.170;5.386;2023-12-07T14:27:04;13.70;49.60
70807;DHT22;58882;52.170;5.386;2023-12-07T14:29:32;13.70;48.50
70807;DHT22;58882;52.170;5.386;2023-12-07T14:31:59;13.80;48.50
70807;DHT22;58882;52.170;5.386;2023-12-07T14:34:30;13.80;49.40
70807;DHT22;58882;52.170;5.386;2023-12-07T14:37:02;13.80;48.20
70807;DHT22;58882;52.170;5.386;2023-12-07T14:39:31;13.80;48.10
70807;DHT22;58882;52.170;5.386;2023-12-07T14:41:58;13.80;48.00
70807;DHT22;58882;52.170;5.386;2023-12-07T14:44:25;13.90;48.10
70807;DHT22;58882;52.170;5.386;2023-12-07T14:46:56;13.90;48.10
70807;DHT22;58882;52.170;5.386;2023-12-07T14:49:23;13.80;48.00
70807;DHT22;58882;52.170;5.386;2023-12-07T14:51:51;13.90;48.00
70807;DHT22;58882;52.170;5.386;2023-12-07T14:54:18;13.90;47.80
70807;DHT22;58882;52.170;5.386;2023-12-07T14:56:52;13.90;47.80
70807;DHT22;58882;52.170;5.386;2023-12-07T14:59:19;13.90;47.60
70807;DHT22;58882;52.170;5.386;2023-12-07T15:01:46;13.90;47.50
70807;DHT22;58882;52.170;5.386;2023-12-07T15:04:13;13.90;47.50
70807;DHT22;58882;52.170;5.386;2023-12-07T15:06:56;13.90;47.50
70807;DHT22;58882;52.170;5.386;2023-12-07T15:09:23;14.00;47.40
70807;DHT22;58882;52.170;5.386;2023-12-07T15:11:50;14.00;47.40
70807;DHT22;58882;52.170;5.386;2023-12-07T15:14:17;14.00;47.30
70807;DHT22;58882;52.170;5.386;2023-12-07T15:17:02;14.00;47.20
70807;DHT22;58882;52.170;5.386;2023-12-07T15:19:31;14.00;47.10
70807;DHT22;58882;52.170;5.386;2023-12-07T15:21:59;14.00;47.00
70807;DHT22;58882;52.170;5.386;2023-12-07T15:24:26;14.00;47.00
70807;DHT22;58882;52.170;5.386;2023-12-07T15:27:03;14.00;46.80
70807;DHT22;58882;52.170;5.386;2023-12-07T15:29:30;14.00;46.80
70807;DHT22;58882;52.170;5.386;2023-12-07T15:31:58;14.00;46.80
70807;DHT22;58882;52.170;5.386;2023-12-07T15:34:25;14.00;46.70
70807;DHT22;58882;52.170;5.386;2023-12-07T15:37:04;14.00;46.70
70807;DHT22;58882;52.170;5.386;2023-12-07T15:39:31;14.00;46.60
70807;DHT22;58882;52.170;5.386;2023-12-07T15:41:58;14.00;46.60
70807;DHT22;58882;52.170;5.386;2023-12-07T15:44:26;14.10;47.60
70807;DHT22;58882;52.170;5.386;2023-12-07T15:46:56;14.10;46.60
70807;DHT22;58882;52.170;5.386;2023-12-07T15:49:24;14.00;46.40
70807;DHT22;58882;52.170;5.386;2023-12-07T15:51:51;14.10;46.50
70807;DHT22;58882;52.170;5.386;2023-12-07T15:54:21;14.00;46.30